sensor_id;sensor_type;location;lat;lon;timestamp;P1;durP1;ratioP1;P2;durP2;ratioP2
39620;SDS011;25309;48.686;9.170;2024-02-23T00:02:17;0.00;;;0.00;;
39620;SDS011;25309;48.686;9.170;2024-02-23T00:04:45;0.10;;;0.10;;
39620;SDS011;25309;48.686;9.170;2024-02-23T00:07:13;0.00;;;0.00;;
39620;SDS011;25309;48.686;9.170;2024-02-23T00:09:40;0.20;;;0.00;;
39620;SDS011;25309;48.686;9.170;2024-02-23T00:12:07;0.20;;;0.10;;
39620;SDS011;25309;48.686;9.170;2024-02-23T00:14:37;0.60;;;0.10;;
39620;SDS011;25309;48.686;9.170;2024-02-23T00:17:04;0.13;;;0.10;;
39620;SDS011;25309;48.686;9.170;2024-02-23T00:19:32;0.10;;;0.10;;
39620;SDS011;25309;48.686;9.170;2024-02-23T00:21:59;0.47;;;0.10;;
39620;SDS011;25309;48.686;9.170;2024-02-23T00:24:27;0.40;;;0.20;;
39620;SDS011;25309;48.686;9.170;2024-02-23T00:26:55;0.10;;;0.10;;
39620;SDS011;25309;48.686;9.170;2024-02-23T00:29:22;1.50;;;0.10;;
39620;SDS011;25309;48.686;9.170;2024-02-23T00:31:50;0.37;;;0.10;;
39620;SDS011;25309;48.686;9.170;2024-02-23T00:34:17;0.03;;;0.03;;
39620;SDS011;25309;48.686;9.170;2024-02-23T00:36:44;0.20;;;0.10;;
39620;SDS011;25309;48.686;9.170;2024-02-23T00:39:11;0.20;;;0.20;;
39620;SDS011;25309;48.686;9.170;2024-02-23T00:41:40;0.47;;;0.13;;
39620;SDS011;25309;48.686;9.170;2024-02-23T00:44:07;0.10;;;0.10;;
39620;SDS011;25309;48.686;9.170;2024-02-23T00:46:34;1.53;;;0.50;;
39620;SDS011;25309;48.686;9.170;2024-02-23T00:49:01;0.50;;;0.10;;
39620;SDS011;25309;48.686;9.170;2024-02-23T00:51:29;1.03;;;0.20;;
39620;SDS011;25309;48.686;9.170;2024-02-23T00:53:56;1.60;;;0.30;;
39620;SDS011;25309;48.686;9.170;2024-02-23T00:56:23;1.27;;;0.13;;
39620;SDS011;25309;48.686;9.170;2024-02-23T00:59:02;0.30;;;0.30;;
39620;SDS011;25309;48.686;9.170;2024-02-23T01:01:29;0.70;;;0.20;;
39620;SDS011;25309;48.686;9.170;2024-02-23T01:03:58;1.47;;;0.40;;
39620;SDS011;25309;48.686;9.170;2024-02-23T01:06:25;1.13;;;0.20;;
39620;SDS011;25309;48.686;9.170;2024-02-23T01:08:54;0.87;;;0.30;;
39620;SDS011;25309;48.686;9.170;2024-02-23T01:11:21;0.23;;;0.10;;
39620;SDS011;25309;48.686;9.170;2024-02-23T01:13:48;1.20;;;0.40;;
39620;SDS011;25309;48.686;9.170;2024-02-23T01:16:16;1.20;;;0.40;;
39620;SDS011;25309;48.686;9.170;2024-02-23T01:18:43;2.47;;;0.67;;
39620;SDS011;25309;48.686;9.170;2024-02-23T01:21:10;0.53;;;0.30;;
39620;SDS011;25309;48.686;9.170;2024-02-23T01:23:37;1.37;;;0.27;;
39620;SDS011;25309;48.686;9.170;2024-02-23T01:26:04;0.73;;;0.27;;
39620;SDS011;25309;48.686;9.170;2024-02-23T01:28:31;0.47;;;0.20;;
39620;SDS011;25309;48.686;9.170;2024-02-23T01:30:59;0.83;;;0.30;;
39620;SDS011;25309;48.686;9.170;2024-02-23T01:33:27;0.73;;;0.20;;
39620;SDS011;25309;48.686;9.170;2024-02-23T01:35:54;0.20;;;0.17;;
39620;SDS011;25309;48.686;9.170;2024-02-23T01:38:23;1.27;;;0.13;;
39620;SDS011;25309;48.686;9.170;2024-02-23T01:40:51;0.50;;;0.30;;
39620;SDS011;25309;48.686;9.170;2024-02-23T01:43:18;1.50;;;0.30;;
39620;SDS011;25309;48.686;9.170;2024-02-23T01:45:45;0.63;;;0.10;;
39620;SDS011;25309;48.686;9.170;2024-02-23T01:48:12;0.70;;;0.20;;
39620;SDS011;25309;48.686;9.170;2024-02-23T01:50:41;2.23;;;0.30;;
39620;SDS011;25309;48.686;9.170;2024-02-23T01:53:09;0.20;;;0.20;;
39620;SDS011;25309;48.686;9.170;2024-02-23T01:55:37;2.20;;;0.30;;
39620;SDS011;25309;48.686;9.170;2024-02-23T01:58:06;1.23;;;0.50;;
39620;SDS011;25309;48.686;9.170;2024-02-23T02:00:34;1.67;;;0.37;;
39620;SDS011;25309;48.686;9.170;2024-02-23T02:03:04;1.40;;;0.20;;
39620;SDS011;25309;48.686;9.170;2024-02-23T02:05:36;1.87;;;0.40;;
39620;SDS011;25309;48.686;9.170;2024-02-23T02:08:05;2.00;;;0.47;;
39620;SDS011;25309;48.686;9.170;2024-02-23T02:10:33;2.30;;;0.30;;
39620;SDS011;25309;48.686;9.170;2024-02-23T02:13:03;1.67;;;0.43;;
39620;SDS011;25309;48.686;9.170;2024-02-23T02:15:31;0.83;;;0.30;;
39620;SDS011;25309;48.686;9.170;2024-02-23T02:17:57;1.10;;;0.33;;
39620;SDS011;25309;48.686;9.170;2024-02-23T02:20:25;0.57;;;0.30;;
39620;SDS011;25309;48.686;9.170;2024-02-23T02:22:54;0.87;;;0.30;;
39620;SDS011;25309;48.686;9.170;2024-02-23T02:25:22;1.37;;;0.47;;
39620;SDS011;25309;48.686;9.170;2024-02-23T02:27:49;3.17;;;0.50;;
39620;SDS011;25309;48.686;9.170;2024-02-23T02:30:16;1.07;;;0.30;;
39620;SDS011;25309;48.686;9.170;2024-02-23T02:32:43;2.30;;;0.40;;
39620;SDS011;25309;48.686;9.170;2024-02-23T02:35:11;0.60;;;0.40;;
39620;SDS011;25309;48.686;9.170;2024-02-23T02:37:39;4.00;;;0.50;;
39620;SDS011;25309;48.686;9.170;2024-02-23T02:40:06;1.60;;;0.33;;
39620;SDS011;25309;48.686;9.170;2024-02-23T02:42:35;1.27;;;0.40;;
39620;SDS011;25309;48.686;9.170;2024-02-23T02:45:02;0.27;;;0.20;;
39620;SDS011;25309;48.686;9.170;2024-02-23T02:47:30;2.10;;;0.60;;
39620;SDS011;25309;48.686;9.170;2024-02-23T02:49:58;1.43;;;0.50;;
39620;SDS011;25309;48.686;9.170;2024-02-23T02:52:25;2.50;;;0.43;;
39620;SDS011;25309;48.686;9.170;2024-02-23T02:54:52;1.53;;;0.40;;
39620;SDS011;25309;48.686;9.170;2024-02-23T02:57:19;2.80;;;0.40;;
39620;SDS011;25309;48.686;9.170;2024-02-23T02:59:47;1.97;;;0.50;;
39620;SDS011;25309;48.686;9.170;2024-02-23T03:02:16;1.80;;;0.73;;
39620;SDS011;25309;48.686;9.170;2024-02-23T03:04:46;2.53;;;0.80;;
39620;SDS011;25309;48.686;9.170;2024-02-23T03:07:14;1.20;;;0.67;;
39620;SDS011;25309;48.686;9.170;2024-02-23T03:09:41;0.80;;;0.33;;
39620;SDS011;25309;48.686;9.170;2024-02-23T03:12:08;0.47;;;0.40;;
39620;SDS011;25309;48.686;9.170;2024-02-23T03:14:36;1.33;;;0.60;;
39620;SDS011;25309;48.686;9.170;2024-02-23T03:17:08;0.50;;;0.33;;
39620;SDS011;25309;48.686;9.170;2024-02-23T03:19:36;0.97;;;0.23;;
39620;SDS011;25309;48.686;9.170;2024-02-23T03:22:03;0.43;;;0.20;;
39620;SDS011;25309;48.686;9.170;2024-02-23T03:24:31;2.37;;;0.40;;
39620;SDS011;25309;48.686;9.170;2024-02-23T03:26:58;0.67;;;0.20;;
39620;SDS011;25309;48.686;9.170;2024-02-23T03:29:25;0.77;;;0.30;;
39620;SDS011;25309;48.686;9.170;2024-02-23T03:31:56;0.70;;;0.30;;
39620;SDS011;25309;48.686;9.170;2024-02-23T03:34:24;0.60;;;0.40;;
39620;SDS011;25309;48.686;9.170;2024-02-23T03:36:51;3.20;;;0.40;;
39620;SDS011;25309;48.686;9.170;2024-02-23T03:39:19;1.40;;;0.37;;
39620;SDS011;25309;48.686;9.170;2024-02-23T03:41:46;1.33;;;0.50;;
39620;SDS011;25309;48.686;9.170;2024-02-23T03:44:13;1.43;;;0.50;;
39620;SDS011;25309;48.686;9.170;2024-02-23T03:46:40;1.23;;;0.30;;
39620;SDS011;25309;48.686;9.170;2024-02-23T03:49:16;1.50;;;0.40;;
39620;SDS011;25309;48.686;9.170;2024-02-23T03:51:44;1.10;;;0.40;;
39620;SDS011;25309;48.686;9.170;2024-02-23T03:54:11;1.13;;;0.40;;
39620;SDS011;25309;48.686;9.170;2024-02-23T03:56:38;1.60;;;0.40;;
39620;SDS011;25309;48.686;9.170;2024-02-23T03:59:06;2.30;;;0.50;;
39620;SDS011;25309;48.686;9.170;2024-02-23T04:01:36;1.60;;;0.50;;
39620;SDS011;25309;48.686;9.170;2024-02-23T04:04:03;2.43;;;0.53;;
39620;SDS011;25309;48.686;9.170;2024-02-23T04:06:30;1.60;;;0.40;;
39620;SDS011;25309;48.686;9.170;2024-02-23T04:08:59;1.60;;;0.50;;
39620;SDS011;25309;48.686;9.170;2024-02-23T04:11:26;1.83;;;0.70;;
39620;SDS011;25309;48.686;9.170;2024-02-23T04:13:53;3.50;;;0.40;;
39620;SDS011;25309;48.686;9.170;2024-02-23T04:16:22;2.23;;;0.77;;
39620;SDS011;25309;48.686;9.170;2024-02-23T04:18:50;2.40;;;0.60;;
39620;SDS011;25309;48.686;9.170;2024-02-23T04:21:17;2.03;;;0.50;;
39620;SDS011;25309;48.686;9.170;2024-02-23T04:23:44;4.37;;;0.97;;
39620;SDS011;25309;48.686;9.170;2024-02-23T04:26:12;1.73;;;0.40;;
39620;SDS011;25309;48.686;9.170;2024-02-23T04:28:40;3.30;;;0.67;;
39620;SDS011;25309;48.686;9.170;2024-02-23T04:31:07;1.63;;;0.63;;
39620;SDS011;25309;48.686;9.170;2024-02-23T04:33:34;2.90;;;0.60;;
39620;SDS011;25309;48.686;9.170;2024-02-23T04:36:02;1.73;;;0.50;;
39620;SDS011;25309;48.686;9.170;2024-02-23T04:38:30;1.07;;;0.40;;
39620;SDS011;25309;48.686;9.170;2024-02-23T04:40:57;2.07;;;0.40;;
39620;SDS011;25309;48.686;9.170;2024-02-23T04:43:26;1.03;;;0.40;;
39620;SDS011;25309;48.686;9.170;2024-02-23T04:45:52;2.10;;;0.60;;
39620;SDS011;25309;48.686;9.170;2024-02-23T04:48:19;3.87;;;0.70;;
39620;SDS011;25309;48.686;9.170;2024-02-23T04:50:47;2.10;;;0.50;;
39620;SDS011;25309;48.686;9.170;2024-02-23T04:53:14;1.00;;;0.30;;
39620;SDS011;25309;48.686;9.170;2024-02-23T04:55:40;2.33;;;0.70;;
39620;SDS011;25309;48.686;9.170;2024-02-23T04:58:08;1.30;;;0.50;;
39620;SDS011;25309;48.686;9.170;2024-02-23T05:00:36;2.23;;;0.73;;
39620;SDS011;25309;48.686;9.170;2024-02-23T05:03:03;1.67;;;0.37;;
39620;SDS011;25309;48.686;9.170;2024-02-23T05:05:34;3.50;;;0.77;;
39620;SDS011;25309;48.686;9.170;2024-02-23T05:08:02;1.63;;;0.33;;
39620;SDS011;25309;48.686;9.170;2024-02-23T05:10:29;2.03;;;0.57;;
39620;SDS011;25309;48.686;9.170;2024-02-23T05:12:56;3.27;;;0.60;;
39620;SDS011;25309;48.686;9.170;2024-02-23T05:15:23;2.53;;;0.50;;
39620;SDS011;25309;48.686;9.170;2024-02-23T05:17:51;2.33;;;0.70;;
39620;SDS011;25309;48.686;9.170;2024-02-23T05:20:18;2.40;;;0.40;;
39620;SDS011;25309;48.686;9.170;2024-02-23T05:22:45;2.50;;;0.60;;
39620;SDS011;25309;48.686;9.170;2024-02-23T05:25:12;1.70;;;0.40;;
39620;SDS011;25309;48.686;9.170;2024-02-23T05:27:39;2.03;;;0.63;;
39620;SDS011;25309;48.686;9.170;2024-02-23T05:30:06;2.53;;;0.60;;
39620;SDS011;25309;48.686;9.170;2024-02-23T05:32:34;1.93;;;0.50;;
39620;SDS011;25309;48.686;9.170;2024-02-23T05:35:03;1.77;;;0.50;;
39620;SDS011;25309;48.686;9.170;2024-02-23T05:37:30;1.33;;;1.00;;
39620;SDS011;25309;48.686;9.170;2024-02-23T05:39:57;1.90;;;0.93;;
39620;SDS011;25309;48.686;9.170;2024-02-23T05:42:26;1.83;;;0.80;;
39620;SDS011;25309;48.686;9.170;2024-02-23T05:44:53;4.43;;;0.80;;
39620;SDS011;25309;48.686;9.170;2024-02-23T05:47:20;2.50;;;0.80;;
39620;SDS011;25309;48.686;9.170;2024-02-23T05:49:48;2.87;;;0.73;;
39620;SDS011;25309;48.686;9.170;2024-02-23T05:52:17;1.87;;;1.00;;
39620;SDS011;25309;48.686;9.170;2024-02-23T05:54:43;2.83;;;0.80;;
39620;SDS011;25309;48.686;9.170;2024-02-23T05:57:10;3.43;;;1.03;;
39620;SDS011;25309;48.686;9.170;2024-02-23T05:59:37;2.67;;;0.63;;
39620;SDS011;25309;48.686;9.170;2024-02-23T06:02:04;1.77;;;0.90;;
39620;SDS011;25309;48.686;9.170;2024-02-23T06:04:32;1.93;;;1.07;;
39620;SDS011;25309;48.686;9.170;2024-02-23T06:06:59;1.90;;;1.23;;
39620;SDS011;25309;48.686;9.170;2024-02-23T06:09:28;1.83;;;1.03;;
39620;SDS011;25309;48.686;9.170;2024-02-23T06:11:55;2.97;;;1.00;;
39620;SDS011;25309;48.686;9.170;2024-02-23T06:14:22;2.20;;;1.03;;
39620;SDS011;25309;48.686;9.170;2024-02-23T06:16:49;2.60;;;1.60;;
39620;SDS011;25309;48.686;9.170;2024-02-23T06:19:17;4.70;;;1.57;;
39620;SDS011;25309;48.686;9.170;2024-02-23T06:21:47;2.90;;;1.30;;
39620;SDS011;25309;48.686;9.170;2024-02-23T06:24:15;4.07;;;0.90;;
39620;SDS011;25309;48.686;9.170;2024-02-23T06:26:43;4.43;;;1.10;;
39620;SDS011;25309;48.686;9.170;2024-02-23T06:29:13;2.70;;;1.00;;
39620;SDS011;25309;48.686;9.170;2024-02-23T06:31:40;2.87;;;1.20;;
39620;SDS011;25309;48.686;9.170;2024-02-23T06:34:08;1.90;;;1.07;;
39620;SDS011;25309;48.686;9.170;2024-02-23T06:36:35;2.23;;;1.33;;
39620;SDS011;25309;48.686;9.170;2024-02-23T06:39:02;2.53;;;1.20;;
39620;SDS011;25309;48.686;9.170;2024-02-23T06:41:29;1.23;;;1.13;;
39620;SDS011;25309;48.686;9.170;2024-02-23T06:43:59;1.70;;;1.20;;
39620;SDS011;25309;48.686;9.170;2024-02-23T06:46:26;2.30;;;0.87;;
39620;SDS011;25309;48.686;9.170;2024-02-23T06:48:53;1.77;;;0.80;;
39620;SDS011;25309;48.686;9.170;2024-02-23T06:51:20;2.37;;;0.80;;
39620;SDS011;25309;48.686;9.170;2024-02-23T06:53:47;0.60;;;0.53;;
39620;SDS011;25309;48.686;9.170;2024-02-23T06:56:14;0.80;;;0.70;;
39620;SDS011;25309;48.686;9.170;2024-02-23T06:58:41;3.40;;;0.77;;
39620;SDS011;25309;48.686;9.170;2024-02-23T07:01:09;5.23;;;2.37;;
39620;SDS011;25309;48.686;9.170;2024-02-23T07:03:39;6.53;;;2.70;;
39620;SDS011;25309;48.686;9.170;2024-02-23T07:06:07;5.20;;;2.17;;
39620;SDS011;25309;48.686;9.170;2024-02-23T07:08:36;3.77;;;1.57;;
39620;SDS011;25309;48.686;9.170;2024-02-23T07:11:04;7.47;;;2.43;;
39620;SDS011;25309;48.686;9.170;2024-02-23T07:13:31;5.27;;;1.77;;
39620;SDS011;25309;48.686;9.170;2024-02-23T07:15:59;5.20;;;1.00;;
39620;SDS011;25309;48.686;9.170;2024-02-23T07:18:28;1.80;;;0.50;;
39620;SDS011;25309;48.686;9.170;2024-02-23T07:20:55;1.27;;;0.43;;
39620;SDS011;25309;48.686;9.170;2024-02-23T07:23:22;2.77;;;0.70;;
39620;SDS011;25309;48.686;9.170;2024-02-23T07:25:49;2.33;;;0.63;;
39620;SDS011;25309;48.686;9.170;2024-02-23T07:28:17;1.93;;;0.70;;
39620;SDS011;25309;48.686;9.170;2024-02-23T07:30:48;3.30;;;0.70;;
39620;SDS011;25309;48.686;9.170;2024-02-23T07:33:15;2.20;;;1.10;;
39620;SDS011;25309;48.686;9.170;2024-02-23T07:35:44;3.57;;;1.33;;
39620;SDS011;25309;48.686;9.170;2024-02-23T07:38:10;3.40;;;1.23;;
39620;SDS011;25309;48.686;9.170;2024-02-23T07:40:37;2.27;;;1.13;;
39620;SDS011;25309;48.686;9.170;2024-02-23T07:43:05;4.27;;;0.77;;
39620;SDS011;25309;48.686;9.170;2024-02-23T07:45:32;3.70;;;0.90;;
39620;SDS011;25309;48.686;9.170;2024-02-23T07:48:00;2.57;;;0.50;;
39620;SDS011;25309;48.686;9.170;2024-02-23T07:50:27;2.97;;;0.80;;
39620;SDS011;25309;48.686;9.170;2024-02-23T07:52:56;2.53;;;1.00;;
39620;SDS011;25309;48.686;9.170;2024-02-23T07:55:23;1.87;;;0.80;;
39620;SDS011;25309;48.686;9.170;2024-02-23T07:57:50;2.70;;;0.70;;
39620;SDS011;25309;48.686;9.170;2024-02-23T08:00:17;1.73;;;0.77;;
39620;SDS011;25309;48.686;9.170;2024-02-23T08:02:45;2.17;;;0.57;;
39620;SDS011;25309;48.686;9.170;2024-02-23T08:05:12;2.07;;;1.20;;
39620;SDS011;25309;48.686;9.170;2024-02-23T08:07:39;3.00;;;0.80;;
39620;SDS011;25309;48.686;9.170;2024-02-23T08:10:08;2.03;;;0.63;;
39620;SDS011;25309;48.686;9.170;2024-02-23T08:12:37;5.40;;;1.17;;
39620;SDS011;25309;48.686;9.170;2024-02-23T08:15:08;3.97;;;1.63;;
39620;SDS011;25309;48.686;9.170;2024-02-23T08:17:36;1.57;;;0.80;;
39620;SDS011;25309;48.686;9.170;2024-02-23T08:20:03;4.03;;;0.80;;
39620;SDS011;25309;48.686;9.170;2024-02-23T08:22:31;3.97;;;0.80;;
39620;SDS011;25309;48.686;9.170;2024-02-23T08:24:58;2.27;;;0.80;;
39620;SDS011;25309;48.686;9.170;2024-02-23T08:27:26;1.87;;;0.70;;
39620;SDS011;25309;48.686;9.170;2024-02-23T08:29:53;4.60;;;0.80;;
39620;SDS011;25309;48.686;9.170;2024-02-23T08:32:20;1.83;;;0.70;;
39620;SDS011;25309;48.686;9.170;2024-02-23T08:34:47;2.87;;;1.47;;
39620;SDS011;25309;48.686;9.170;2024-02-23T08:37:14;1.37;;;0.67;;
39620;SDS011;25309;48.686;9.170;2024-02-23T08:39:41;1.00;;;0.60;;
39620;SDS011;25309;48.686;9.170;2024-02-23T08:42:08;3.87;;;0.67;;
39620;SDS011;25309;48.686;9.170;2024-02-23T08:44:36;2.80;;;0.80;;
39620;SDS011;25309;48.686;9.170;2024-02-23T08:47:05;2.23;;;0.80;;
39620;SDS011;25309;48.686;9.170;2024-02-23T08:49:32;3.57;;;0.80;;
39620;SDS011;25309;48.686;9.170;2024-02-23T08:51:59;2.43;;;0.70;;
39620;SDS011;25309;48.686;9.170;2024-02-23T08:54:26;2.30;;;0.90;;
39620;SDS011;25309;48.686;9.170;2024-02-23T08:56:53;3.10;;;0.90;;
39620;SDS011;25309;48.686;9.170;2024-02-23T08:59:20;2.23;;;0.90;;
39620;SDS011;25309;48.686;9.170;2024-02-23T09:01:49;2.90;;;0.80;;
39620;SDS011;25309;48.686;9.170;2024-02-23T09:04:16;2.60;;;0.70;;
39620;SDS011;25309;48.686;9.170;2024-02-23T09:06:43;3.37;;;0.80;;
39620;SDS011;25309;48.686;9.170;2024-02-23T09:09:10;3.73;;;1.27;;
39620;SDS011;25309;48.686;9.170;2024-02-23T09:11:37;1.93;;;0.77;;
39620;SDS011;25309;48.686;9.170;2024-02-23T09:14:04;3.53;;;0.90;;
39620;SDS011;25309;48.686;9.170;2024-02-23T09:16:31;2.07;;;0.83;;
39620;SDS011;25309;48.686;9.170;2024-02-23T09:19:00;1.83;;;1.13;;
39620;SDS011;25309;48.686;9.170;2024-02-23T09:21:27;2.07;;;1.00;;
39620;SDS011;25309;48.686;9.170;2024-02-23T09:23:54;2.40;;;0.90;;
39620;SDS011;25309;48.686;9.170;2024-02-23T09:26:21;2.13;;;0.80;;
39620;SDS011;25309;48.686;9.170;2024-02-23T09:28:48;2.53;;;0.93;;
39620;SDS011;25309;48.686;9.170;2024-02-23T09:31:15;3.20;;;0.70;;
39620;SDS011;25309;48.686;9.170;2024-02-23T09:33:42;2.57;;;0.77;;
39620;SDS011;25309;48.686;9.170;2024-02-23T09:36:11;2.80;;;0.53;;
39620;SDS011;25309;48.686;9.170;2024-02-23T09:38:39;3.30;;;0.80;;
39620;SDS011;25309;48.686;9.170;2024-02-23T09:41:07;3.33;;;0.87;;
39620;SDS011;25309;48.686;9.170;2024-02-23T09:43:46;2.23;;;1.57;;
39620;SDS011;25309;48.686;9.170;2024-02-23T09:46:13;3.40;;;0.87;;
39620;SDS011;25309;48.686;9.170;2024-02-23T09:48:41;2.27;;;1.13;;
39620;SDS011;25309;48.686;9.170;2024-02-23T09:51:11;2.10;;;0.93;;
39620;SDS011;25309;48.686;9.170;2024-02-23T09:53:38;4.67;;;1.20;;
39620;SDS011;25309;48.686;9.170;2024-02-23T09:56:06;4.33;;;1.57;;
39620;SDS011;25309;48.686;9.170;2024-02-23T09:58:34;3.17;;;1.17;;
39620;SDS011;25309;48.686;9.170;2024-02-23T10:01:03;2.47;;;0.80;;
39620;SDS011;25309;48.686;9.170;2024-02-23T10:03:30;4.87;;;1.27;;
39620;SDS011;25309;48.686;9.170;2024-02-23T10:05:57;4.33;;;1.23;;
39620;SDS011;25309;48.686;9.170;2024-02-23T10:08:27;3.40;;;1.00;;
39620;SDS011;25309;48.686;9.170;2024-02-23T10:10:55;4.03;;;1.30;;
39620;SDS011;25309;48.686;9.170;2024-02-23T10:13:23;2.80;;;1.30;;
39620;SDS011;25309;48.686;9.170;2024-02-23T10:15:50;2.50;;;1.00;;
39620;SDS011;25309;48.686;9.170;2024-02-23T10:18:38;2.50;;;0.70;;
39620;SDS011;25309;48.686;9.170;2024-02-23T10:21:05;4.00;;;1.40;;
39620;SDS011;25309;48.686;9.170;2024-02-23T10:23:34;7.40;;;2.93;;
39620;SDS011;25309;48.686;9.170;2024-02-23T10:26:04;2.47;;;0.73;;
39620;SDS011;25309;48.686;9.170;2024-02-23T10:28:31;4.13;;;0.90;;
39620;SDS011;25309;48.686;9.170;2024-02-23T10:30:58;4.93;;;0.90;;
39620;SDS011;25309;48.686;9.170;2024-02-23T10:33:27;5.00;;;1.40;;
39620;SDS011;25309;48.686;9.170;2024-02-23T10:35:56;2.60;;;0.90;;
39620;SDS011;25309;48.686;9.170;2024-02-23T10:38:26;5.37;;;1.17;;
39620;SDS011;25309;48.686;9.170;2024-02-23T10:40:56;2.43;;;0.90;;
39620;SDS011;25309;48.686;9.170;2024-02-23T10:43:25;4.60;;;0.80;;
39620;SDS011;25309;48.686;9.170;2024-02-23T10:45:56;3.00;;;0.80;;
39620;SDS011;25309;48.686;9.170;2024-02-23T10:48:25;5.53;;;1.20;;
39620;SDS011;25309;48.686;9.170;2024-02-23T10:50:53;2.70;;;0.90;;
39620;SDS011;25309;48.686;9.170;2024-02-23T10:53:21;2.70;;;1.17;;
39620;SDS011;25309;48.686;9.170;2024-02-23T10:55:50;3.43;;;0.87;;
39620;SDS011;25309;48.686;9.170;2024-02-23T10:58:23;3.07;;;0.83;;
39620;SDS011;25309;48.686;9.170;2024-02-23T11:00:50;3.73;;;1.13;;
39620;SDS011;25309;48.686;9.170;2024-02-23T11:03:17;2.07;;;0.70;;
39620;SDS011;25309;48.686;9.170;2024-02-23T11:05:47;3.30;;;1.00;;
39620;SDS011;25309;48.686;9.170;2024-02-23T11:08:16;3.77;;;0.93;;
39620;SDS011;25309;48.686;9.170;2024-02-23T11:10:48;3.57;;;0.80;;
39620;SDS011;25309;48.686;9.170;2024-02-23T11:13:17;3.87;;;0.90;;
39620;SDS011;25309;48.686;9.170;2024-02-23T11:15:46;3.60;;;0.90;;
39620;SDS011;25309;48.686;9.170;2024-02-23T11:18:22;1.97;;;0.70;;
39620;SDS011;25309;48.686;9.170;2024-02-23T11:20:53;4.17;;;0.83;;
39620;SDS011;25309;48.686;9.170;2024-02-23T11:23:21;2.50;;;0.90;;
39620;SDS011;25309;48.686;9.170;2024-02-23T11:28:43;2.33;;;0.80;;
39620;SDS011;25309;48.686;9.170;2024-02-23T11:31:14;4.27;;;0.90;;
39620;SDS011;25309;48.686;9.170;2024-02-23T11:33:48;4.43;;;0.90;;
39620;SDS011;25309;48.686;9.170;2024-02-23T11:36:22;3.40;;;1.00;;
39620;SDS011;25309;48.686;9.170;2024-02-23T11:38:52;3.80;;;0.90;;
39620;SDS011;25309;48.686;9.170;2024-02-23T11:41:21;3.43;;;0.90;;
39620;SDS011;25309;48.686;9.170;2024-02-23T11:43:50;2.57;;;0.90;;
39620;SDS011;25309;48.686;9.170;2024-02-23T11:46:19;3.60;;;0.90;;
39620;SDS011;25309;48.686;9.170;2024-02-23T11:48:46;3.47;;;1.00;;
39620;SDS011;25309;48.686;9.170;2024-02-23T11:51:19;3.23;;;1.00;;
39620;SDS011;25309;48.686;9.170;2024-02-23T11:53:50;3.77;;;0.90;;
39620;SDS011;25309;48.686;9.170;2024-02-23T11:56:18;3.80;;;0.87;;
39620;SDS011;25309;48.686;9.170;2024-02-23T11:58:46;3.57;;;1.00;;
39620;SDS011;25309;48.686;9.170;2024-02-23T12:01:14;2.80;;;0.80;;
39620;SDS011;25309;48.686;9.170;2024-02-23T12:03:42;3.40;;;0.83;;
39620;SDS011;25309;48.686;9.170;2024-02-23T12:06:10;3.23;;;1.07;;
39620;SDS011;25309;48.686;9.170;2024-02-23T12:08:39;3.07;;;1.13;;
39620;SDS011;25309;48.686;9.170;2024-02-23T12:11:08;2.93;;;0.97;;
39620;SDS011;25309;48.686;9.170;2024-02-23T12:13:36;2.97;;;1.00;;
39620;SDS011;25309;48.686;9.170;2024-02-23T12:16:04;2.17;;;0.90;;
39620;SDS011;25309;48.686;9.170;2024-02-23T12:18:33;2.47;;;0.80;;
39620;SDS011;25309;48.686;9.170;2024-02-23T12:21:03;3.57;;;1.23;;
39620;SDS011;25309;48.686;9.170;2024-02-23T12:23:42;4.03;;;0.90;;
39620;SDS011;25309;48.686;9.170;2024-02-23T12:26:10;4.47;;;1.33;;
39620;SDS011;25309;48.686;9.170;2024-02-23T12:28:39;5.77;;;1.60;;
39620;SDS011;25309;48.686;9.170;2024-02-23T12:31:07;5.17;;;1.33;;
39620;SDS011;25309;48.686;9.170;2024-02-23T12:33:34;3.90;;;1.10;;
39620;SDS011;25309;48.686;9.170;2024-02-23T12:36:05;4.00;;;0.87;;
39620;SDS011;25309;48.686;9.170;2024-02-23T12:38:33;2.77;;;1.20;;
39620;SDS011;25309;48.686;9.170;2024-02-23T12:41:01;3.03;;;0.83;;
39620;SDS011;25309;48.686;9.170;2024-02-23T12:43:29;3.90;;;1.03;;
39620;SDS011;25309;48.686;9.170;2024-02-23T12:45:57;3.63;;;0.90;;
39620;SDS011;25309;48.686;9.170;2024-02-23T12:48:24;4.30;;;1.00;;
39620;SDS011;25309;48.686;9.170;2024-02-23T12:50:51;2.63;;;0.70;;
39620;SDS011;25309;48.686;9.170;2024-02-23T12:53:31;2.70;;;1.13;;
39620;SDS011;25309;48.686;9.170;2024-02-23T12:56:00;2.87;;;1.00;;
39620;SDS011;25309;48.686;9.170;2024-02-23T12:58:29;4.60;;;1.23;;
39620;SDS011;25309;48.686;9.170;2024-02-23T13:00:56;3.63;;;1.07;;
39620;SDS011;25309;48.686;9.170;2024-02-23T13:03:24;3.37;;;0.97;;
39620;SDS011;25309;48.686;9.170;2024-02-23T13:05:53;4.60;;;1.10;;
39620;SDS011;25309;48.686;9.170;2024-02-23T13:08:20;3.63;;;1.10;;
39620;SDS011;25309;48.686;9.170;2024-02-23T13:10:50;3.77;;;1.10;;
39620;SDS011;25309;48.686;9.170;2024-02-23T13:13:17;4.67;;;1.40;;
39620;SDS011;25309;48.686;9.170;2024-02-23T13:15:45;3.70;;;0.80;;
39620;SDS011;25309;48.686;9.170;2024-02-23T13:18:13;2.83;;;1.20;;
39620;SDS011;25309;48.686;9.170;2024-02-23T13:20:41;3.30;;;1.33;;
39620;SDS011;25309;48.686;9.170;2024-02-23T13:23:09;4.93;;;1.30;;
39620;SDS011;25309;48.686;9.170;2024-02-23T13:25:36;3.80;;;0.90;;
39620;SDS011;25309;48.686;9.170;2024-02-23T13:28:05;3.73;;;0.90;;
39620;SDS011;25309;48.686;9.170;2024-02-23T13:30:32;2.57;;;0.93;;
39620;SDS011;25309;48.686;9.170;2024-02-23T13:33:00;3.20;;;1.33;;
39620;SDS011;25309;48.686;9.170;2024-02-23T13:35:28;3.23;;;0.80;;
39620;SDS011;25309;48.686;9.170;2024-02-23T13:37:54;3.00;;;1.10;;
39620;SDS011;25309;48.686;9.170;2024-02-23T13:40:23;2.37;;;0.90;;
39620;SDS011;25309;48.686;9.170;2024-02-23T13:42:50;3.93;;;1.37;;
39620;SDS011;25309;48.686;9.170;2024-02-23T13:45:21;2.70;;;1.00;;
39620;SDS011;25309;48.686;9.170;2024-02-23T13:47:55;6.43;;;1.27;;
39620;SDS011;25309;48.686;9.170;2024-02-23T13:50:23;5.90;;;1.00;;
39620;SDS011;25309;48.686;9.170;2024-02-23T13:52:50;6.73;;;1.20;;
39620;SDS011;25309;48.686;9.170;2024-02-23T13:55:18;3.00;;;1.00;;
39620;SDS011;25309;48.686;9.170;2024-02-23T13:57:48;2.77;;;1.10;;
39620;SDS011;25309;48.686;9.170;2024-02-23T14:00:16;4.47;;;1.00;;
39620;SDS011;25309;48.686;9.170;2024-02-23T14:02:47;5.53;;;1.40;;
39620;SDS011;25309;48.686;9.170;2024-02-23T14:05:15;3.83;;;1.03;;
39620;SDS011;25309;48.686;9.170;2024-02-23T14:07:44;3.17;;;1.10;;
39620;SDS011;25309;48.686;9.170;2024-02-23T14:10:13;5.37;;;1.10;;
39620;SDS011;25309;48.686;9.170;2024-02-23T14:12:40;4.57;;;1.00;;
39620;SDS011;25309;48.686;9.170;2024-02-23T14:15:08;4.53;;;1.20;;
39620;SDS011;25309;48.686;9.170;2024-02-23T14:17:36;4.67;;;1.20;;
39620;SDS011;25309;48.686;9.170;2024-02-23T14:20:05;3.60;;;1.00;;
39620;SDS011;25309;48.686;9.170;2024-02-23T14:22:33;2.30;;;0.90;;
39620;SDS011;25309;48.686;9.170;2024-02-23T14:25:01;4.23;;;1.13;;
39620;SDS011;25309;48.686;9.170;2024-02-23T14:27:28;3.67;;;1.03;;
39620;SDS011;25309;48.686;9.170;2024-02-23T14:29:57;2.97;;;1.00;;
39620;SDS011;25309;48.686;9.170;2024-02-23T14:32:24;4.50;;;1.17;;
39620;SDS011;25309;48.686;9.170;2024-02-23T14:34:51;4.97;;;1.13;;
39620;SDS011;25309;48.686;9.170;2024-02-23T14:37:20;4.17;;;1.20;;
39620;SDS011;25309;48.686;9.170;2024-02-23T14:39:47;3.97;;;1.20;;
39620;SDS011;25309;48.686;9.170;2024-02-23T14:42:15;5.27;;;1.20;;
39620;SDS011;25309;48.686;9.170;2024-02-23T14:44:42;3.00;;;1.00;;
39620;SDS011;25309;48.686;9.170;2024-02-23T14:47:09;4.17;;;1.17;;
39620;SDS011;25309;48.686;9.170;2024-02-23T14:49:36;3.80;;;1.20;;
39620;SDS011;25309;48.686;9.170;2024-02-23T14:52:03;2.67;;;1.10;;
39620;SDS011;25309;48.686;9.170;2024-02-23T14:54:32;4.63;;;1.00;;
39620;SDS011;25309;48.686;9.170;2024-02-23T14:56:59;5.00;;;1.00;;